sensor_id;sensor_type;location;lat;lon;timestamp;P1;durP1;ratioP1;P2;durP2;ratioP2
5285;SDS011;2665;53.112;7.358;2023-04-01T00:00:19;4.80;;;3.20;;
5285;SDS011;2665;53.112;7.358;2023-04-01T00:02:45;4.60;;;2.83;;
5285;SDS011;2665;53.112;7.358;2023-04-01T00:05:11;4.50;;;2.73;;
5285;SDS011;2665;53.112;7.358;2023-04-01T00:07:37;4.00;;;2.80;;
5285;SDS011;2665;53.112;7.358;2023-04-01T00:10:05;4.10;;;2.57;;
5285;SDS011;2665;53.112;7.358;2023-04-01T00:12:32;4.80;;;2.77;;
5285;SDS011;2665;53.112;7.358;2023-04-01T00:14:57;3.80;;;2.80;;
5285;SDS011;2665;53.112;7.358;2023-04-01T00:17:23;4.03;;;2.93;;
5285;SDS011;2665;53.112;7.358;2023-04-01T00:19:49;4.80;;;3.03;;
5285;SDS011;2665;53.112;7.358;2023-04-01T00:22:14;7.30;;;2.80;;
5285;SDS011;2665;53.112;7.358;2023-04-01T00:24:40;7.83;;;2.77;;
5285;SDS011;2665;53.112;7.358;2023-04-01T00:27:06;3.37;;;2.60;;
5285;SDS011;2665;53.112;7.358;2023-04-01T00:29:33;5.13;;;3.77;;
5285;SDS011;2665;53.112;7.358;2023-04-01T00:31:58;4.10;;;2.67;;
5285;SDS011;2665;53.112;7.358;2023-04-01T00:34:24;4.93;;;2.93;;
5285;SDS011;2665;53.112;7.358;2023-04-01T00:36:50;6.63;;;3.00;;
5285;SDS011;2665;53.112;7.358;2023-04-01T00:39:17;7.07;;;3.80;;
5285;SDS011;2665;53.112;7.358;2023-04-01T00:41:43;3.83;;;3.10;;
5285;SDS011;2665;53.112;7.358;2023-04-01T00:44:28;6.27;;;3.30;;
5285;SDS011;2665;53.112;7.358;2023-04-01T00:46:55;4.40;;;3.50;;
5285;SDS011;2665;53.112;7.358;2023-04-01T00:49:22;3.77;;;3.07;;
5285;SDS011;2665;53.112;7.358;2023-04-01T00:51:53;5.63;;;3.30;;
5285;SDS011;2665;53.112;7.358;2023-04-01T00:54:20;4.53;;;3.47;;
5285;SDS011;2665;53.112;7.358;2023-04-01T00:56:48;3.77;;;3.40;;
5285;SDS011;2665;53.112;7.358;2023-04-01T00:59:35;4.27;;;3.83;;
5285;SDS011;2665;53.112;7.358;2023-04-01T01:02:06;4.60;;;3.70;;
5285;SDS011;2665;53.112;7.358;2023-04-01T01:04:34;7.77;;;4.10;;
5285;SDS011;2665;53.112;7.358;2023-04-01T01:15:18;5.70;;;3.80;;
5285;SDS011;2665;53.112;7.358;2023-04-01T01:17:58;4.07;;;3.03;;
5285;SDS011;2665;53.112;7.358;2023-04-01T01:29:22;5.23;;;4.30;;
5285;SDS011;2665;53.112;7.358;2023-04-01T01:32:25;5.57;;;4.27;;
5285;SDS011;2665;53.112;7.358;2023-04-01T01:35:25;4.83;;;3.90;;
5285;SDS011;2665;53.112;7.358;2023-04-01T01:38:12;8.60;;;4.13;;
5285;SDS011;2665;53.112;7.358;2023-04-01T01:40:41;4.50;;;3.70;;
5285;SDS011;2665;53.112;7.358;2023-04-01T01:43:10;6.10;;;3.87;;
5285;SDS011;2665;53.112;7.358;2023-04-01T01:45:40;5.83;;;3.57;;
5285;SDS011;2665;53.112;7.358;2023-04-01T01:48:12;5.67;;;4.23;;
5285;SDS011;2665;53.112;7.358;2023-04-01T01:50:40;7.77;;;4.17;;
5285;SDS011;2665;53.112;7.358;2023-04-01T01:53:08;9.13;;;4.03;;
5285;SDS011;2665;53.112;7.358;2023-04-01T01:55:36;5.37;;;4.30;;
5285;SDS011;2665;53.112;7.358;2023-04-01T01:58:15;5.20;;;4.40;;
5285;SDS011;2665;53.112;7.358;2023-04-01T02:00:42;9.30;;;4.50;;
5285;SDS011;2665;53.112;7.358;2023-04-01T02:03:12;6.60;;;4.60;;
5285;SDS011;2665;53.112;7.358;2023-04-01T02:05:40;5.10;;;4.10;;
5285;SDS011;2665;53.112;7.358;2023-04-01T02:08:07;6.93;;;4.87;;
5285;SDS011;2665;53.112;7.358;2023-04-01T02:10:41;6.97;;;5.33;;
5285;SDS011;2665;53.112;7.358;2023-04-01T02:13:29;11.23;;;3.27;;
5285;SDS011;2665;53.112;7.358;2023-04-01T02:16:05;7.43;;;5.30;;
5285;SDS011;2665;53.112;7.358;2023-04-01T02:18:37;5.83;;;4.53;;
5285;SDS011;2665;53.112;7.358;2023-04-01T02:21:04;5.97;;;4.40;;
5285;SDS011;2665;53.112;7.358;2023-04-01T02:23:35;5.53;;;4.43;;
5285;SDS011;2665;53.112;7.358;2023-04-01T02:26:02;6.00;;;4.00;;
5285;SDS011;2665;53.112;7.358;2023-04-01T02:28:31;9.67;;;4.80;;
5285;SDS011;2665;53.112;7.358;2023-04-01T02:30:58;4.90;;;4.10;;
5285;SDS011;2665;53.112;7.358;2023-04-01T02:33:25;5.40;;;3.77;;
5285;SDS011;2665;53.112;7.358;2023-04-01T02:35:53;7.00;;;5.23;;
5285;SDS011;2665;53.112;7.358;2023-04-01T02:38:19;9.40;;;5.70;;
5285;SDS011;2665;53.112;7.358;2023-04-01T02:40:48;7.27;;;5.23;;
5285;SDS011;2665;53.112;7.358;2023-04-01T02:43:16;6.70;;;5.10;;
5285;SDS011;2665;53.112;7.358;2023-04-01T02:45:43;8.43;;;4.33;;
5285;SDS011;2665;53.112;7.358;2023-04-01T02:48:09;5.87;;;4.33;;
5285;SDS011;2665;53.112;7.358;2023-04-01T02:50:35;7.43;;;5.27;;
5285;SDS011;2665;53.112;7.358;2023-04-01T02:53:01;5.47;;;4.63;;
5285;SDS011;2665;53.112;7.358;2023-04-01T02:55:28;7.20;;;5.03;;
5285;SDS011;2665;53.112;7.358;2023-04-01T02:57:55;7.93;;;4.27;;
5285;SDS011;2665;53.112;7.358;2023-04-01T03:00:21;7.83;;;5.50;;
5285;SDS011;2665;53.112;7.358;2023-04-01T03:02:46;6.40;;;4.40;;
5285;SDS011;2665;53.112;7.358;2023-04-01T03:05:12;5.60;;;4.07;;
5285;SDS011;2665;53.112;7.358;2023-04-01T03:07:38;4.90;;;4.03;;
5285;SDS011;2665;53.112;7.358;2023-04-01T03:10:04;6.53;;;4.93;;
5285;SDS011;2665;53.112;7.358;2023-04-01T03:12:30;6.17;;;4.83;;
5285;SDS011;2665;53.112;7.358;2023-04-01T03:14:56;5.97;;;4.00;;
5285;SDS011;2665;53.112;7.358;2023-04-01T03:17:22;6.30;;;4.87;;
5285;SDS011;2665;53.112;7.358;2023-04-01T03:19:47;7.93;;;4.30;;
5285;SDS011;2665;53.112;7.358;2023-04-01T03:22:13;8.43;;;4.50;;
5285;SDS011;2665;53.112;7.358;2023-04-01T03:24:38;5.30;;;4.00;;
5285;SDS011;2665;53.112;7.358;2023-04-01T03:27:04;6.27;;;5.10;;
5285;SDS011;2665;53.112;7.358;2023-04-01T03:29:30;9.37;;;5.70;;
5285;SDS011;2665;53.112;7.358;2023-04-01T03:31:55;6.47;;;4.77;;
5285;SDS011;2665;53.112;7.358;2023-04-01T03:34:23;8.40;;;4.57;;
5285;SDS011;2665;53.112;7.358;2023-04-01T03:36:49;6.33;;;4.67;;
5285;SDS011;2665;53.112;7.358;2023-04-01T03:39:16;7.67;;;5.23;;
5285;SDS011;2665;53.112;7.358;2023-04-01T03:41:44;10.30;;;5.60;;
5285;SDS011;2665;53.112;7.358;2023-04-01T03:44:10;7.50;;;4.90;;
5285;SDS011;2665;53.112;7.358;2023-04-01T03:46:36;7.13;;;4.93;;
5285;SDS011;2665;53.112;7.358;2023-04-01T03:49:02;5.53;;;4.53;;
5285;SDS011;2665;53.112;7.358;2023-04-01T03:51:36;7.50;;;4.93;;
5285;SDS011;2665;53.112;7.358;2023-04-01T03:54:05;8.60;;;5.10;;
5285;SDS011;2665;53.112;7.358;2023-04-01T03:56:31;7.63;;;4.30;;
5285;SDS011;2665;53.112;7.358;2023-04-01T03:58:57;9.80;;;4.30;;
5285;SDS011;2665;53.112;7.358;2023-04-01T04:01:22;5.00;;;4.30;;
5285;SDS011;2665;53.112;7.358;2023-04-01T04:03:48;7.20;;;3.43;;
5285;SDS011;2665;53.112;7.358;2023-04-01T04:06:15;5.57;;;4.40;;
5285;SDS011;2665;53.112;7.358;2023-04-01T04:08:42;5.87;;;5.00;;
5285;SDS011;2665;53.112;7.358;2023-04-01T04:11:08;5.60;;;4.13;;
5285;SDS011;2665;53.112;7.358;2023-04-01T04:13:33;7.70;;;4.70;;
5285;SDS011;2665;53.112;7.358;2023-04-01T04:16:00;6.97;;;5.00;;
5285;SDS011;2665;53.112;7.358;2023-04-01T04:18:27;8.67;;;5.90;;
5285;SDS011;2665;53.112;7.358;2023-04-01T04:20:52;6.30;;;4.37;;
5285;SDS011;2665;53.112;7.358;2023-04-01T04:23:18;6.40;;;4.57;;
5285;SDS011;2665;53.112;7.358;2023-04-01T04:25:54;8.30;;;5.60;;
5285;SDS011;2665;53.112;7.358;2023-04-01T04:28:30;7.67;;;5.00;;
5285;SDS011;2665;53.112;7.358;2023-04-01T04:30:57;7.13;;;5.37;;
5285;SDS011;2665;53.112;7.358;2023-04-01T04:33:23;8.53;;;5.90;;
5285;SDS011;2665;53.112;7.358;2023-04-01T04:35:49;9.00;;;5.57;;
5285;SDS011;2665;53.112;7.358;2023-04-01T04:38:15;7.93;;;5.40;;
5285;SDS011;2665;53.112;7.358;2023-04-01T04:40:42;10.57;;;6.07;;
5285;SDS011;2665;53.112;7.358;2023-04-01T04:43:10;9.03;;;5.90;;
5285;SDS011;2665;53.112;7.358;2023-04-01T04:45:37;9.30;;;6.03;;
5285;SDS011;2665;53.112;7.358;2023-04-01T04:48:02;7.50;;;6.00;;
5285;SDS011;2665;53.112;7.358;2023-04-01T04:50:28;11.57;;;6.30;;
5285;SDS011;2665;53.112;7.358;2023-04-01T04:52:54;17.60;;;6.90;;
5285;SDS011;2665;53.112;7.358;2023-04-01T04:55:19;10.63;;;6.50;;
5285;SDS011;2665;53.112;7.358;2023-04-01T04:57:45;8.67;;;5.90;;
5285;SDS011;2665;53.112;7.358;2023-04-01T05:00:11;9.20;;;5.70;;
5285;SDS011;2665;53.112;7.358;2023-04-01T05:02:37;9.23;;;6.20;;
5285;SDS011;2665;53.112;7.358;2023-04-01T05:05:02;10.63;;;6.80;;
5285;SDS011;2665;53.112;7.358;2023-04-01T05:07:29;8.67;;;6.97;;
5285;SDS011;2665;53.112;7.358;2023-04-01T05:09:54;8.63;;;6.43;;
5285;SDS011;2665;53.112;7.358;2023-04-01T05:12:20;11.30;;;7.70;;
5285;SDS011;2665;53.112;7.358;2023-04-01T05:14:46;12.70;;;7.60;;
5285;SDS011;2665;53.112;7.358;2023-04-01T05:17:11;12.40;;;7.40;;
5285;SDS011;2665;53.112;7.358;2023-04-01T05:19:38;10.53;;;7.60;;
5285;SDS011;2665;53.112;7.358;2023-04-01T05:22:04;9.10;;;6.00;;
5285;SDS011;2665;53.112;7.358;2023-04-01T05:24:30;11.83;;;6.43;;
5285;SDS011;2665;53.112;7.358;2023-04-01T05:26:56;10.17;;;7.10;;
5285;SDS011;2665;53.112;7.358;2023-04-01T05:29:22;9.30;;;6.33;;
5285;SDS011;2665;53.112;7.358;2023-04-01T05:31:49;10.17;;;6.77;;
5285;SDS011;2665;53.112;7.358;2023-04-01T05:34:15;12.23;;;7.23;;
5285;SDS011;2665;53.112;7.358;2023-04-01T05:36:41;8.70;;;5.90;;
5285;SDS011;2665;53.112;7.358;2023-04-01T05:39:07;8.97;;;5.00;;
5285;SDS011;2665;53.112;7.358;2023-04-01T05:41:37;7.90;;;5.77;;
5285;SDS011;2665;53.112;7.358;2023-04-01T05:44:03;9.03;;;5.57;;
5285;SDS011;2665;53.112;7.358;2023-04-01T05:46:29;8.57;;;6.30;;
5285;SDS011;2665;53.112;7.358;2023-04-01T05:48:56;9.60;;;6.93;;
5285;SDS011;2665;53.112;7.358;2023-04-01T05:51:22;10.40;;;6.63;;
5285;SDS011;2665;53.112;7.358;2023-04-01T05:53:47;9.70;;;6.33;;
5285;SDS011;2665;53.112;7.358;2023-04-01T05:56:13;8.30;;;5.33;;
5285;SDS011;2665;53.112;7.358;2023-04-01T05:58:39;9.37;;;6.10;;
5285;SDS011;2665;53.112;7.358;2023-04-01T06:01:06;11.30;;;6.47;;
5285;SDS011;2665;53.112;7.358;2023-04-01T06:03:33;9.53;;;6.37;;
5285;SDS011;2665;53.112;7.358;2023-04-01T06:05:59;7.17;;;5.40;;
5285;SDS011;2665;53.112;7.358;2023-04-01T06:08:26;10.87;;;6.80;;
5285;SDS011;2665;53.112;7.358;2023-04-01T06:38:59;9.33;;;6.00;;
5285;SDS011;2665;53.112;7.358;2023-04-01T06:41:55;10.17;;;6.30;;
5285;SDS011;2665;53.112;7.358;2023-04-01T06:47:33;9.60;;;6.73;;
5285;SDS011;2665;53.112;7.358;2023-04-01T06:55:47;8.10;;;5.43;;
5285;SDS011;2665;53.112;7.358;2023-04-01T06:58:21;14.00;;;7.13;;
5285;SDS011;2665;53.112;7.358;2023-04-01T07:00:54;9.47;;;6.10;;
5285;SDS011;2665;53.112;7.358;2023-04-01T07:03:31;9.30;;;6.00;;
5285;SDS011;2665;53.112;7.358;2023-04-01T07:06:22;8.97;;;5.80;;
5285;SDS011;2665;53.112;7.358;2023-04-01T07:08:49;10.87;;;6.17;;
5285;SDS011;2665;53.112;7.358;2023-04-01T07:11:25;8.57;;;5.60;;
5285;SDS011;2665;53.112;7.358;2023-04-01T07:13:55;9.30;;;6.37;;
5285;SDS011;2665;53.112;7.358;2023-04-01T07:22:39;8.33;;;6.07;;
5285;SDS011;2665;53.112;7.358;2023-04-01T07:28:05;7.90;;;5.60;;
5285;SDS011;2665;53.112;7.358;2023-04-01T07:30:47;7.50;;;5.30;;
5285;SDS011;2665;53.112;7.358;2023-04-01T07:36:31;8.77;;;5.83;;
5285;SDS011;2665;53.112;7.358;2023-04-01T07:42:17;10.53;;;7.13;;
5285;SDS011;2665;53.112;7.358;2023-04-01T07:45:15;10.27;;;6.20;;
5285;SDS011;2665;53.112;7.358;2023-04-01T07:50:31;6.00;;;4.30;;
5285;SDS011;2665;53.112;7.358;2023-04-01T07:55:42;8.10;;;5.40;;
5285;SDS011;2665;53.112;7.358;2023-04-01T08:07:17;6.97;;;5.00;;
5285;SDS011;2665;53.112;7.358;2023-04-01T08:13:06;9.93;;;6.77;;
5285;SDS011;2665;53.112;7.358;2023-04-01T08:26:10;8.50;;;6.00;;
5285;SDS011;2665;53.112;7.358;2023-04-01T08:28:41;8.93;;;5.70;;
5285;SDS011;2665;53.112;7.358;2023-04-01T08:31:29;9.03;;;5.60;;
5285;SDS011;2665;53.112;7.358;2023-04-01T08:34:20;9.50;;;6.03;;
5285;SDS011;2665;53.112;7.358;2023-04-01T08:36:50;9.53;;;6.07;;
5285;SDS011;2665;53.112;7.358;2023-04-01T08:39:29;8.07;;;5.63;;
5285;SDS011;2665;53.112;7.358;2023-04-01T08:55:37;4.60;;;3.67;;
5285;SDS011;2665;53.112;7.358;2023-04-01T08:58:23;3.80;;;2.80;;
5285;SDS011;2665;53.112;7.358;2023-04-01T09:18:13;4.00;;;3.40;;
5285;SDS011;2665;53.112;7.358;2023-04-01T09:20:56;4.03;;;3.23;;
5285;SDS011;2665;53.112;7.358;2023-04-01T09:32:51;4.10;;;2.97;;
5285;SDS011;2665;53.112;7.358;2023-04-01T09:37:46;3.23;;;2.67;;
5285;SDS011;2665;53.112;7.358;2023-04-01T09:40:47;3.20;;;2.70;;
5285;SDS011;2665;53.112;7.358;2023-04-01T09:48:50;3.17;;;2.03;;
5285;SDS011;2665;53.112;7.358;2023-04-01T09:55:33;2.90;;;1.80;;
5285;SDS011;2665;53.112;7.358;2023-04-01T10:00:21;3.10;;;1.93;;
5285;SDS011;2665;53.112;7.358;2023-04-01T10:08:57;2.50;;;1.40;;
5285;SDS011;2665;53.112;7.358;2023-04-01T10:36:43;1.80;;;0.97;;
5285;SDS011;2665;53.112;7.358;2023-04-01T10:53:14;2.80;;;1.47;;
5285;SDS011;2665;53.112;7.358;2023-04-01T11:02:12;1.70;;;0.80;;
5285;SDS011;2665;53.112;7.358;2023-04-01T11:11:14;2.00;;;0.90;;
5285;SDS011;2665;53.112;7.358;2023-04-01T11:14:12;1.83;;;1.00;;
5285;SDS011;2665;53.112;7.358;2023-04-01T11:17:00;1.90;;;0.70;;
5285;SDS011;2665;53.112;7.358;2023-04-01T11:28:27;1.90;;;0.80;;
5285;SDS011;2665;53.112;7.358;2023-04-01T11:31:39;1.70;;;0.80;;
5285;SDS011;2665;53.112;7.358;2023-04-01T11:34:43;1.67;;;0.70;;
5285;SDS011;2665;53.112;7.358;2023-04-01T11:43:00;2.00;;;1.00;;
5285;SDS011;2665;53.112;7.358;2023-04-01T11:45:46;3.03;;;1.00;;
5285;SDS011;2665;53.112;7.358;2023-04-01T11:53:56;1.90;;;0.93;;
5285;SDS011;2665;53.112;7.358;2023-04-01T11:59:31;2.00;;;1.13;;
5285;SDS011;2665;53.112;7.358;2023-04-01T12:07:49;1.80;;;0.80;;
5285;SDS011;2665;53.112;7.358;2023-04-01T12:13:16;2.20;;;1.00;;
5285;SDS011;2665;53.112;7.358;2023-04-01T12:24:45;2.30;;;1.40;;
5285;SDS011;2665;53.112;7.358;2023-04-01T12:35:27;1.80;;;1.10;;
5285;SDS011;2665;53.112;7.358;2023-04-01T12:38:17;1.90;;;0.90;;
5285;SDS011;2665;53.112;7.358;2023-04-01T12:41:08;2.00;;;1.17;;
5285;SDS011;2665;53.112;7.358;2023-04-01T12:46:51;2.07;;;1.20;;
5285;SDS011;2665;53.112;7.358;2023-04-01T12:52:50;2.87;;;1.00;;
5285;SDS011;2665;53.112;7.358;2023-04-01T12:55:42;1.97;;;1.10;;
5285;SDS011;2665;53.112;7.358;2023-04-01T13:21:04;1.97;;;0.90;;
5285;SDS011;2665;53.112;7.358;2023-04-01T13:26:30;2.23;;;1.20;;
5285;SDS011;2665;53.112;7.358;2023-04-01T13:34:39;2.10;;;1.10;;
5285;SDS011;2665;53.112;7.358;2023-04-01T13:51:01;5.07;;;1.00;;
5285;SDS011;2665;53.112;7.358;2023-04-01T14:13:21;3.40;;;1.73;;
5285;SDS011;2665;53.112;7.358;2023-04-01T14:15:59;2.50;;;1.67;;
5285;SDS011;2665;53.112;7.358;2023-04-01T14:24:22;1.60;;;0.70;;
5285;SDS011;2665;53.112;7.358;2023-04-01T14:34:56;2.20;;;1.17;;
5285;SDS011;2665;53.112;7.358;2023-04-01T14:40:55;1.73;;;0.90;;
5285;SDS011;2665;53.112;7.358;2023-04-01T14:49:22;2.43;;;1.73;;
5285;SDS011;2665;53.112;7.358;2023-04-01T14:52:09;1.90;;;1.00;;
5285;SDS011;2665;53.112;7.358;2023-04-01T14:54:37;2.20;;;1.17;;
5285;SDS011;2665;53.112;7.358;2023-04-01T14:57:10;1.90;;;0.90;;
5285;SDS011;2665;53.112;7.358;2023-04-01T14:59:40;1.83;;;0.73;;
5285;SDS011;2665;53.112;7.358;2023-04-01T15:08:18;2.00;;;0.90;;
5285;SDS011;2665;53.112;7.358;2023-04-01T15:16:25;2.50;;;1.50;;
5285;SDS011;2665;53.112;7.358;2023-04-01T15:43:27;2.43;;;1.57;;
5285;SDS011;2665;53.112;7.358;2023-04-01T15:48:50;3.23;;;1.30;;
5285;SDS011;2665;53.112;7.358;2023-04-01T16:02:18;2.60;;;1.53;;
5285;SDS011;2665;53.112;7.358;2023-04-01T16:05:23;3.53;;;1.87;;
5285;SDS011;2665;53.112;7.358;2023-04-01T16:16:31;2.90;;;1.80;;
5285;SDS011;2665;53.112;7.358;2023-04-01T16:19:13;2.77;;;1.63;;
5285;SDS011;2665;53.112;7.358;2023-04-01T16:22:12;3.80;;;1.90;;
5285;SDS011;2665;53.112;7.358;2023-04-01T16:24:46;2.90;;;1.90;;
5285;SDS011;2665;53.112;7.358;2023-04-01T16:43:38;4.10;;;2.00;;
5285;SDS011;2665;53.112;7.358;2023-04-01T16:48:59;3.17;;;2.30;;
5285;SDS011;2665;53.112;7.358;2023-04-01T16:51:44;3.63;;;2.50;;
5285;SDS011;2665;53.112;7.358;2023-04-01T16:59:48;3.87;;;2.73;;
5285;SDS011;2665;53.112;7.358;2023-04-01T17:02:38;4.13;;;2.47;;
5285;SDS011;2665;53.112;7.358;2023-04-01T17:05:20;5.67;;;2.80;;
5285;SDS011;2665;53.112;7.358;2023-04-01T17:08:10;10.20;;;4.23;;
5285;SDS011;2665;53.112;7.358;2023-04-01T17:10:50;4.70;;;2.67;;
5285;SDS011;2665;53.112;7.358;2023-04-01T17:27:48;5.30;;;2.40;;
5285;SDS011;2665;53.112;7.358;2023-04-01T17:30:35;6.87;;;2.60;;
5285;SDS011;2665;53.112;7.358;2023-04-01T17:33:29;4.80;;;2.23;;
5285;SDS011;2665;53.112;7.358;2023-04-01T17:36:16;8.23;;;2.80;;
5285;SDS011;2665;53.112;7.358;2023-04-01T17:47:15;4.00;;;2.50;;
5285;SDS011;2665;53.112;7.358;2023-04-01T17:52:39;8.83;;;2.40;;
5285;SDS011;2665;53.112;7.358;2023-04-01T17:55:21;5.97;;;2.63;;
5285;SDS011;2665;53.112;7.358;2023-04-01T17:58:17;7.43;;;3.47;;
5285;SDS011;2665;53.112;7.358;2023-04-01T18:09:32;7.23;;;2.90;;
5285;SDS011;2665;53.112;7.358;2023-04-01T18:12:58;5.47;;;3.27;;
5285;SDS011;2665;53.112;7.358;2023-04-01T18:18:31;6.00;;;2.40;;
5285;SDS011;2665;53.112;7.358;2023-04-01T18:21:29;6.07;;;3.33;;
5285;SDS011;2665;53.112;7.358;2023-04-01T18:24:14;4.40;;;4.00;;
5285;SDS011;2665;53.112;7.358;2023-04-01T18:27:07;5.37;;;3.27;;
5285;SDS011;2665;53.112;7.358;2023-04-01T18:29:54;5.07;;;3.53;;
5285;SDS011;2665;53.112;7.358;2023-04-01T18:37:28;5.50;;;3.30;;
5285;SDS011;2665;53.112;7.358;2023-04-01T18:43:04;5.23;;;3.10;;
5285;SDS011;2665;53.112;7.358;2023-04-01T18:45:47;7.93;;;3.20;;
5285;SDS011;2665;53.112;7.358;2023-04-01T18:51:14;4.13;;;2.47;;
5285;SDS011;2665;53.112;7.358;2023-04-01T18:53:54;7.97;;;3.70;;
5285;SDS011;2665;53.112;7.358;2023-04-01T18:59:00;6.50;;;3.43;;
5285;SDS011;2665;53.112;7.358;2023-04-01T19:01:31;5.57;;;3.13;;
5285;SDS011;2665;53.112;7.358;2023-04-01T19:06:56;5.00;;;3.40;;
5285;SDS011;2665;53.112;7.358;2023-04-01T19:09:29;7.60;;;3.87;;
5285;SDS011;2665;53.112;7.358;2023-04-01T19:12:37;7.03;;;3.80;;
5285;SDS011;2665;53.112;7.358;2023-04-01T19:21:22;7.30;;;3.43;;
5285;SDS011;2665;53.112;7.358;2023-04-01T19:24:02;6.30;;;3.57;;
5285;SDS011;2665;53.112;7.358;2023-04-01T19:32:16;8.10;;;4.73;;
5285;SDS011;2665;53.112;7.358;2023-04-01T19:37:39;13.00;;;4.30;;
5285;SDS011;2665;53.112;7.358;2023-04-01T19:45:54;3.97;;;2.87;;
5285;SDS011;2665;53.112;7.358;2023-04-01T19:51:10;5.60;;;4.33;;
5285;SDS011;2665;53.112;7.358;2023-04-01T19:54:05;8.70;;;3.73;;
5285;SDS011;2665;53.112;7.358;2023-04-01T20:08:43;4.83;;;3.07;;
5285;SDS011;2665;53.112;7.358;2023-04-01T20:14:32;6.37;;;3.23;;
5285;SDS011;2665;53.112;7.358;2023-04-01T20:19:36;5.60;;;3.00;;
5285;SDS011;2665;53.112;7.358;2023-04-01T20:22:09;4.37;;;2.80;;
5285;SDS011;2665;53.112;7.358;2023-04-01T20:24:50;8.73;;;3.27;;
5285;SDS011;2665;53.112;7.358;2023-04-01T20:29:56;3.80;;;2.83;;
5285;SDS011;2665;53.112;7.358;2023-04-01T20:35:26;10.20;;;3.40;;
5285;SDS011;2665;53.112;7.358;2023-04-01T20:43:17;8.23;;;2.73;;
5285;SDS011;2665;53.112;7.358;2023-04-01T20:51:46;3.70;;;2.80;;
5285;SDS011;2665;53.112;7.358;2023-04-01T21:17:08;4.30;;;2.53;;
5285;SDS011;2665;53.112;7.358;2023-04-01T21:39:34;3.27;;;2.30;;
5285;SDS011;2665;53.112;7.358;2023-04-01T21:50:47;4.10;;;2.17;;
5285;SDS011;2665;53.112;7.358;2023-04-01T22:04:52;5.53;;;2.20;;
5285;SDS011;2665;53.112;7.358;2023-04-01T22:15:53;3.73;;;2.30;;
5285;SDS011;2665;53.112;7.358;2023-04-01T22:18:32;4.50;;;2.03;;
5285;SDS011;2665;53.112;7.358;2023-04-01T22:21:04;3.70;;;2.30;;
5285;SDS011;2665;53.112;7.358;2023-04-01T22:26:38;5.23;;;3.30;;
5285;SDS011;2665;53.112;7.358;2023-04-01T22:31:44;5.23;;;2.17;;
5285;SDS011;2665;53.112;7.358;2023-04-01T22:37:10;3.63;;;2.20;;
5285;SDS011;2665;53.112;7.358;2023-04-01T22:42:44;6.13;;;1.90;;
5285;SDS011;2665;53.112;7.358;2023-04-01T22:45:27;3.70;;;1.80;;
5285;SDS011;2665;53.112;7.358;2023-04-01T22:48:17;5.03;;;2.23;;
5285;SDS011;2665;53.112;7.358;2023-04-01T22:53:28;6.20;;;2.53;;
5285;SDS011;2665;53.112;7.358;2023-04-01T22:56:18;6.40;;;2.30;;
5285;SDS011;2665;53.112;7.358;2023-04-01T22:58:56;5.77;;;2.30;;
5285;SDS011;2665;53.112;7.358;2023-04-01T23:01:27;3.03;;;1.60;;
5285;SDS011;2665;53.112;7.358;2023-04-01T23:03:57;3.87;;;1.67;;
5285;SDS011;2665;53.112;7.358;2023-04-01T23:06:26;3.73;;;2.03;;
5285;SDS011;2665;53.112;7.358;2023-04-01T23:11:27;7.90;;;2.10;;
5285;SDS011;2665;53.112;7.358;2023-04-01T23:17:24;5.03;;;2.20;;
5285;SDS011;2665;53.112;7.358;2023-04-01T23:19:52;4.83;;;2.17;;
5285;SDS011;2665;53.112;7.358;2023-04-01T23:33:20;5.93;;;2.17;;
5285;SDS011;2665;53.112;7.358;2023-04-01T23:35:51;3.27;;;1.90;;
5285;SDS011;2665;53.112;7.358;2023-04-01T23:38:22;9.03;;;1.90;;
5285;SDS011;2665;53.112;7.358;2023-04-01T23:40:49;2.70;;;1.40;;
5285;SDS011;2665;53.112;7.358;2023-04-01T23:43:30;3.40;;;2.00;;
5285;SDS011;2665;53.112;7.358;2023-04-01T23:45:57;3.00;;;1.83;;
5285;SDS011;2665;53.112;7.358;2023-04-01T23:48:29;8.00;;;2.30;;
5285;SDS011;2665;53.112;7.358;2023-04-01T23:50:56;2.97;;;1.83;;
5285;SDS011;2665;53.112;7.358;2023-04-01T23:53:23;8.80;;;2.00;;
5285;SDS011;2665;53.112;7.358;2023-04-01T23:55:50;3.17;;;1.50;;
5285;SDS011;2665;53.112;7.358;2023-04-01T23:58:27;6.93;;;1.73;;
